Time;durP1;ratioP1;P1;durP2;ratioP2;P2;SDS_P1;SDS_P2;PMS_P1;PMS_P2;Temp;Humidity;BMP_temperature;BMP_pressure;BME280_temperature;BME280_humidity;BME280_pressure;Samples;Min_cycle;Max_cycle;Signal;HPM_P1;HPM_P2
2024/01/27 00:00:59;;;;;;;2.50;1.13;;;8.30;99.90;;;;;;5043283;28;20872;-45
2024/01/27 00:03:27;;;;;;;3.90;1.37;;;8.30;99.90;;;;;;5043108;28;20470;-45
2024/01/27 00:05:55;;;;;;;4.50;1.40;;;8.30;99.90;;;;;;5044383;28;20438;-44
2024/01/27 00:08:24;;;;;;;3.55;1.58;;;8.30;99.90;;;;;;5042667;28;20624;-45
2024/01/27 00:10:52;;;;;;;2.43;1.20;;;8.30;99.90;;;;;;5038572;28;20212;-44
2024/01/27 00:13:20;;;;;;;2.03;0.97;;;8.20;99.90;;;;;;5046209;28;20477;-45
2024/01/27 00:15:50;;;;;;;3.47;1.10;;;8.20;99.90;;;;;;5035432;28;20949;-45
2024/01/27 00:18:18;;;;;;;2.77;1.40;;;8.20;99.90;;;;;;5043899;28;20495;-45
2024/01/27 00:20:46;;;;;;;2.30;1.33;;;8.30;99.90;;;;;;5045142;28;20438;-45
2024/01/27 00:23:15;;;;;;;2.43;1.40;;;8.20;99.90;;;;;;5044630;28;20460;-44
2024/01/27 00:25:43;;;;;;;2.85;1.10;;;8.20;99.90;;;;;;5044334;28;20896;-45
2024/01/27 00:28:11;;;;;;;2.97;1.15;;;8.20;99.90;;;;;;5045259;28;20236;-44
2024/01/27 00:30:39;;;;;;;3.75;1.05;;;8.20;99.90;;;;;;5041953;28;20212;-44
2024/01/27 00:33:09;;;;;;;3.65;1.10;;;8.20;99.90;;;;;;5042717;28;20239;-44
2024/01/27 00:35:37;;;;;;;1.43;1.10;;;8.20;99.90;;;;;;5044079;28;20283;-44
2024/01/27 00:38:05;;;;;;;2.30;0.93;;;8.20;99.90;;;;;;5042360;28;20546;-44
2024/01/27 00:40:33;;;;;;;2.58;1.00;;;8.20;99.90;;;;;;5043185;28;20446;-45
2024/01/27 00:43:03;;;;;;;1.80;1.10;;;8.20;99.90;;;;;;5044680;28;20230;-45
2024/01/27 00:45:31;;;;;;;2.30;1.17;;;8.20;99.90;;;;;;5042413;28;20189;-44
2024/01/27 00:48:00;;;;;;;2.95;0.90;;;8.20;99.90;;;;;;5040557;28;20517;-44
2024/01/27 00:50:30;;;;;;;2.90;1.80;;;8.20;99.90;;;;;;5048691;28;20747;-45
2024/01/27 00:52:58;;;;;;;4.90;1.70;;;8.20;99.90;;;;;;5043578;28;20235;-44
2024/01/27 00:55:29;;;;;;;2.88;1.20;;;8.20;99.90;;;;;;5044496;28;20567;-44
2024/01/27 00:57:57;;;;;;;2.22;1.10;;;8.20;99.90;;;;;;5049531;28;20219;-44
2024/01/27 01:00:25;;;;;;;4.30;1.73;;;8.20;99.90;;;;;;5044696;28;20216;-44
2024/01/27 01:02:53;;;;;;;3.50;1.20;;;8.20;99.90;;;;;;5046071;28;20500;-45
2024/01/27 01:05:22;;;;;;;1.83;1.13;;;8.20;99.90;;;;;;5048439;28;20253;-45
2024/01/27 01:07:51;;;;;;;4.37;2.07;;;8.10;99.90;;;;;;5041692;28;20483;-45
2024/01/27 01:10:19;;;;;;;2.05;1.30;;;8.10;99.90;;;;;;5047382;28;20469;-45
2024/01/27 01:12:47;;;;;;;3.63;1.37;;;8.10;99.90;;;;;;5046969;28;20303;-45
2024/01/27 01:15:16;;;;;;;4.07;1.17;;;8.10;99.90;;;;;;5044026;28;20466;-44
2024/01/27 01:17:44;;;;;;;2.47;1.10;;;8.10;99.90;;;;;;5042142;28;20598;-44
2024/01/27 01:20:12;;;;;;;2.75;1.20;;;8.10;99.90;;;;;;5048477;28;20587;-45
2024/01/27 01:22:40;;;;;;;1.80;1.27;;;8.10;99.90;;;;;;5049365;28;20718;-43
2024/01/27 01:25:10;;;;;;;6.25;1.40;;;8.10;99.90;;;;;;5046492;28;20203;-42
2024/01/27 01:27:38;;;;;;;1.88;1.20;;;8.10;99.90;;;;;;5043888;28;20247;-45
2024/01/27 01:30:07;;;;;;;3.20;1.30;;;8.10;99.90;;;;;;5045983;28;20242;-44
2024/01/27 01:32:36;;;;;;;2.75;1.20;;;8.10;99.90;;;;;;5040710;28;20470;-46
2024/01/27 01:35:05;;;;;;;2.57;1.13;;;8.10;99.90;;;;;;5047897;28;20712;-45
2024/01/27 01:37:33;;;;;;;3.30;0.90;;;8.10;99.90;;;;;;5027950;28;21000;-46
2024/01/27 01:40:02;;;;;;;3.80;1.25;;;8.10;99.90;;;;;;5044906;28;20959;-45
2024/01/27 01:42:32;;;;;;;4.50;1.20;;;8.10;99.90;;;;;;5048186;28;20307;-45
2024/01/27 01:45:00;;;;;;;2.83;1.10;;;8.10;99.90;;;;;;5048473;28;20442;-44
2024/01/27 01:47:29;;;;;;;1.70;0.98;;;8.10;99.90;;;;;;5041154;28;20703;-45
2024/01/27 01:49:57;;;;;;;4.20;1.40;;;8.10;99.90;;;;;;5048748;28;20558;-45
2024/01/27 01:52:26;;;;;;;2.70;1.47;;;8.10;99.90;;;;;;5046068;28;20226;-45
2024/01/27 01:54:54;;;;;;;2.53;1.20;;;8.10;99.90;;;;;;5049618;28;20430;-45
2024/01/27 01:57:22;;;;;;;2.00;1.10;;;8.10;99.90;;;;;;5050043;28;20220;-44
2024/01/27 01:59:52;;;;;;;2.60;1.13;;;8.10;99.90;;;;;;5048106;28;20200;-44
2024/01/27 02:02:21;;;;;;;3.25;1.00;;;8.10;99.90;;;;;;5042417;28;20220;-45
2024/01/27 02:04:49;;;;;;;2.17;1.13;;;8.00;99.90;;;;;;5050771;28;20195;-44
2024/01/27 02:07:17;;;;;;;2.63;1.30;;;8.00;99.90;;;;;;5029191;28;20242;-44
2024/01/27 02:09:46;;;;;;;2.30;1.05;;;8.00;99.90;;;;;;5049345;28;20428;-45
2024/01/27 02:12:14;;;;;;;2.28;1.33;;;8.00;99.90;;;;;;5047738;28;20567;-48
2024/01/27 02:14:42;;;;;;;2.05;1.15;;;8.00;99.90;;;;;;5048937;28;20232;-47
2024/01/27 02:17:12;;;;;;;1.85;0.93;;;8.00;99.90;;;;;;5043490;28;20701;-47
2024/01/27 02:19:40;;;;;;;3.10;1.52;;;8.00;99.90;;;;;;5050874;28;20197;-45
2024/01/27 02:22:08;;;;;;;1.73;1.00;;;8.00;99.90;;;;;;5048402;28;20254;-48
2024/01/27 02:24:37;;;;;;;3.75;1.63;;;8.00;99.90;;;;;;5046416;28;20438;-46
2024/01/27 02:27:06;;;;;;;1.83;1.00;;;8.00;99.90;;;;;;5047059;28;20219;-44
2024/01/27 02:29:34;;;;;;;2.67;1.27;;;8.00;99.90;;;;;;5047057;28;20427;-45
2024/01/27 02:32:03;;;;;;;2.08;0.85;;;8.00;99.90;;;;;;5042785;28;20509;-46
2024/01/27 02:34:31;;;;;;;5.13;1.67;;;8.00;99.90;;;;;;5052317;28;20196;-45
2024/01/27 02:36:59;;;;;;;4.78;1.17;;;8.00;99.90;;;;;;5054051;28;20192;-44
2024/01/27 02:39:27;;;;;;;2.40;1.00;;;7.90;99.90;;;;;;5042209;28;20199;-44
2024/01/27 02:41:57;;;;;;;4.20;1.35;;;8.00;99.90;;;;;;5050077;28;20335;-44
2024/01/27 02:44:25;;;;;;;2.08;0.98;;;7.90;99.90;;;;;;5050191;28;20207;-44
2024/01/27 02:46:53;;;;;;;1.85;0.85;;;7.90;99.90;;;;;;5043945;28;20201;-45
2024/01/27 02:49:22;;;;;;;2.47;0.80;;;7.90;99.90;;;;;;5046448;28;20675;-45
2024/01/27 02:51:50;;;;;;;3.75;1.13;;;7.90;99.90;;;;;;5046008;28;20219;-45
2024/01/27 02:54:18;;;;;;;2.47;1.35;;;7.90;99.90;;;;;;5044239;28;20730;-44
2024/01/27 02:56:47;;;;;;;1.80;1.00;;;7.90;99.90;;;;;;5043769;28;20715;-44
2024/01/27 02:59:16;;;;;;;1.48;0.93;;;7.90;99.90;;;;;;5046017;28;20196;-45
2024/01/27 03:01:45;;;;;;;1.70;0.70;;;7.90;99.90;;;;;;5039850;28;20558;-44
2024/01/27 03:04:13;;;;;;;2.47;0.80;;;7.90;99.90;;;;;;5044498;28;20571;-45
2024/01/27 03:06:41;;;;;;;2.75;0.98;;;7.90;99.90;;;;;;5046680;28;20188;-44
2024/01/27 03:09:10;;;;;;;2.58;1.17;;;7.90;99.90;;;;;;5045593;28;20487;-45
2024/01/27 03:11:39;;;;;;;6.57;1.73;;;7.90;99.90;;;;;;5040002;28;20317;-45
2024/01/27 03:14:07;;;;;;;2.25;1.27;;;7.90;99.90;;;;;;5043959;28;20309;-46
2024/01/27 03:16:36;;;;;;;2.67;0.95;;;7.90;99.90;;;;;;5037969;28;20222;-45
2024/01/27 03:19:04;;;;;;;2.90;1.27;;;7.80;99.90;;;;;;5047214;28;20309;-44
2024/01/27 03:21:33;;;;;;;1.83;0.90;;;7.90;99.90;;;;;;5045792;28;20439;-44
2024/01/27 03:24:01;;;;;;;2.95;1.10;;;7.90;99.90;;;;;;5039546;28;20223;-45
2024/01/27 03:26:29;;;;;;;1.85;0.80;;;7.90;99.90;;;;;;5045150;28;20196;-44
2024/01/27 03:28:57;;;;;;;2.58;1.25;;;7.80;99.90;;;;;;5047155;28;20217;-46
2024/01/27 03:31:31;;;;;;;2.00;1.40;;;7.80;99.90;;;;;;5037834;28;20208;-45
2024/01/27 03:34:02;;;;;;;3.33;1.50;;;7.80;99.90;;;;;;5040998;28;20226;-45
2024/01/27 03:36:30;;;;;;;2.75;1.60;;;7.80;99.90;;;;;;5044621;28;20436;-46
2024/01/27 03:39:02;;;;;;;2.45;1.20;;;7.80;99.90;;;;;;5045209;28;20224;-44
2024/01/27 03:41:30;;;;;;;3.05;1.20;;;7.80;99.90;;;;;;5039230;28;20202;-45
2024/01/27 03:43:58;;;;;;;2.57;1.20;;;7.80;99.90;;;;;;5046266;28;20243;-46
2024/01/27 03:46:26;;;;;;;3.42;0.95;;;7.80;99.90;;;;;;5036915;28;20446;-44
2024/01/27 03:48:56;;;;;;;2.30;0.95;;;7.80;99.90;;;;;;5043544;28;20345;-44
2024/01/27 03:51:26;;;;;;;3.70;1.38;;;7.80;99.90;;;;;;5045109;28;20221;-44
2024/01/27 03:53:54;;;;;;;3.30;0.70;;;7.80;99.90;;;;;;5044450;28;20231;-45
2024/01/27 03:56:22;;;;;;;2.20;1.02;;;7.80;99.90;;;;;;5045815;28;20239;-45
2024/01/27 03:58:50;;;;;;;2.65;1.17;;;7.80;99.90;;;;;;5046151;28;20223;-44
2024/01/27 04:01:19;;;;;;;2.25;1.30;;;7.80;99.90;;;;;;5037204;28;20568;-44
2024/01/27 04:03:47;;;;;;;1.50;1.00;;;7.80;99.90;;;;;;5047019;28;20303;-44
2024/01/27 04:06:16;;;;;;;2.75;1.08;;;7.80;99.90;;;;;;5048464;28;20200;-44
2024/01/27 04:08:46;;;;;;;2.65;1.50;;;7.80;99.90;;;;;;5045413;28;20319;-44
2024/01/27 04:11:21;;;;;;;1.98;1.35;;;7.80;99.90;;;;;;5042355;28;20476;-45
2024/01/27 04:13:50;;;;;;;2.28;0.90;;;7.70;99.90;;;;;;5042346;28;20298;-45
2024/01/27 04:16:18;;;;;;;3.65;1.10;;;7.70;99.90;;;;;;5043095;28;20635;-46
2024/01/27 04:18:48;;;;;;;2.13;0.67;;;7.70;99.90;;;;;;5045266;28;20224;-45
2024/01/27 04:21:16;;;;;;;1.83;0.90;;;7.70;99.90;;;;;;5045771;28;20506;-44
2024/01/27 04:23:46;;;;;;;1.50;0.90;;;7.70;99.90;;;;;;5046857;28;20748;-45
2024/01/27 04:26:14;;;;;;;5.88;0.98;;;7.70;99.90;;;;;;5047750;28;20186;-45
2024/01/27 04:28:42;;;;;;;1.30;0.60;;;7.70;99.90;;;;;;5050290;28;20214;-44
2024/01/27 04:31:10;;;;;;;2.83;1.00;;;7.70;99.90;;;;;;5047696;28;20197;-45
2024/01/27 04:33:39;;;;;;;1.80;1.15;;;7.70;99.90;;;;;;5045848;28;20532;-45
2024/01/27 04:36:08;;;;;;;4.60;0.80;;;7.70;99.90;;;;;;5048569;28;20204;-44
2024/01/27 04:38:37;;;;;;;2.28;1.13;;;7.70;99.90;;;;;;5049278;28;20215;-43
2024/01/27 04:41:06;;;;;;;2.72;1.15;;;7.70;99.90;;;;;;5049164;28;20199;-45
2024/01/27 04:43:34;;;;;;;2.15;1.10;;;7.70;99.90;;;;;;5045314;28;20216;-45
2024/01/27 04:46:03;;;;;;;3.38;1.75;;;7.70;99.90;;;;;;5044087;28;20291;-45
2024/01/27 04:48:31;;;;;;;1.80;0.95;;;7.70;99.90;;;;;;5032515;28;20374;-45
2024/01/27 04:50:59;;;;;;;2.28;0.80;;;7.70;99.90;;;;;;5047294;28;20192;-46
2024/01/27 04:53:27;;;;;;;2.83;1.50;;;7.70;99.90;;;;;;5047658;28;20208;-44
2024/01/27 04:55:56;;;;;;;1.17;0.63;;;7.70;99.90;;;;;;5029932;28;20197;-44
2024/01/27 04:58:26;;;;;;;2.88;1.13;;;7.70;99.90;;;;;;5049659;28;20471;-44
2024/01/27 05:00:54;;;;;;;1.40;0.80;;;7.60;99.90;;;;;;5048376;28;20197;-44
2024/01/27 05:03:22;;;;;;;1.75;0.90;;;7.60;99.90;;;;;;5046945;28;20277;-45
2024/01/27 05:05:50;;;;;;;2.25;1.05;;;7.60;99.90;;;;;;5049051;28;20265;-45
2024/01/27 05:08:19;;;;;;;2.15;0.98;;;7.60;99.90;;;;;;5050151;28;20710;-45
2024/01/27 05:10:47;;;;;;;2.15;1.30;;;7.60;99.90;;;;;;5048220;28;20207;-45
2024/01/27 05:13:16;;;;;;;2.38;1.20;;;7.60;99.90;;;;;;5047196;28;20224;-44
2024/01/27 05:15:46;;;;;;;3.28;1.30;;;7.60;99.90;;;;;;5044489;28;20288;-44
2024/01/27 05:18:14;;;;;;;2.42;0.90;;;7.60;99.90;;;;;;5047167;28;20701;-44
2024/01/27 05:20:42;;;;;;;3.42;1.20;;;7.60;99.90;;;;;;5048260;28;20193;-44
2024/01/27 05:23:10;;;;;;;2.88;1.00;;;7.60;99.90;;;;;;5049513;28;20226;-44
2024/01/27 05:25:38;;;;;;;2.15;1.00;;;7.60;99.90;;;;;;5051322;28;20615;-44
2024/01/27 05:28:07;;;;;;;3.83;1.17;;;7.60;99.90;;;;;;5048047;28;20212;-44
2024/01/27 05:30:35;;;;;;;1.88;0.93;;;7.60;99.90;;;;;;5040735;28;20271;-44
2024/01/27 05:33:05;;;;;;;1.77;0.90;;;7.60;99.90;;;;;;5050579;28;20307;-44
2024/01/27 05:35:33;;;;;;;2.33;1.02;;;7.60;99.90;;;;;;5050455;28;20193;-45
2024/01/27 05:38:02;;;;;;;1.92;0.95;;;7.60;99.90;;;;;;5050842;28;20227;-45
2024/01/27 05:40:30;;;;;;;1.40;0.80;;;7.50;99.90;;;;;;5041234;28;20290;-44
2024/01/27 05:42:59;;;;;;;2.75;0.80;;;7.50;99.90;;;;;;5046091;28;20699;-44
2024/01/27 05:45:28;;;;;;;2.13;1.10;;;7.50;99.90;;;;;;5047225;28;20855;-44
2024/01/27 05:47:57;;;;;;;2.60;0.77;;;7.50;99.90;;;;;;5043655;28;20229;-44
2024/01/27 05:50:27;;;;;;;1.55;0.65;;;7.50;99.90;;;;;;5046537;28;20221;-45
2024/01/27 05:52:55;;;;;;;3.30;1.33;;;7.50;99.90;;;;;;5047450;28;20223;-45
2024/01/27 05:55:23;;;;;;;2.13;1.10;;;7.50;99.90;;;;;;5046294;28;20443;-45
2024/01/27 05:57:51;;;;;;;1.55;0.80;;;7.50;99.90;;;;;;5049259;28;20227;-45
2024/01/27 06:00:20;;;;;;;1.70;0.82;;;7.50;99.90;;;;;;5044781;28;20212;-45
2024/01/27 06:02:48;;;;;;;1.90;0.95;;;7.50;99.90;;;;;;5048130;28;20216;-45
2024/01/27 06:05:16;;;;;;;2.20;0.90;;;7.50;99.90;;;;;;5045612;28;20662;-44
2024/01/27 06:07:47;;;;;;;1.95;1.20;;;7.50;99.90;;;;;;5048174;28;20307;-44
2024/01/27 06:10:15;;;;;;;2.13;0.95;;;7.50;99.90;;;;;;5047071;28;20193;-45
2024/01/27 06:12:44;;;;;;;2.45;1.73;;;7.50;99.90;;;;;;5048610;28;20222;-45
2024/01/27 06:15:12;;;;;;;4.35;0.93;;;7.50;99.90;;;;;;5045062;28;20287;-45
2024/01/27 06:17:41;;;;;;;1.55;1.20;;;7.50;99.90;;;;;;5042548;28;20304;-45
2024/01/27 06:20:10;;;;;;;1.80;0.88;;;7.50;99.90;;;;;;5048261;28;20197;-44
2024/01/27 06:22:38;;;;;;;3.67;1.10;;;7.50;99.90;;;;;;5040645;28;20233;-45
2024/01/27 06:25:10;;;;;;;2.30;0.95;;;7.40;99.90;;;;;;5043533;28;20193;-45
2024/01/27 06:27:38;;;;;;;6.03;1.10;;;7.40;99.90;;;;;;5029248;28;20284;-44
2024/01/27 06:30:08;;;;;;;3.80;1.77;;;7.50;99.90;;;;;;5048207;28;20672;-46
2024/01/27 06:32:36;;;;;;;2.30;0.95;;;7.50;99.90;;;;;;5044202;28;20217;-45
2024/01/27 06:35:05;;;;;;;1.90;1.20;;;7.50;99.90;;;;;;5046534;28;20900;-45
2024/01/27 06:37:33;;;;;;;1.88;0.98;;;7.40;99.90;;;;;;5047402;28;20224;-45
2024/01/27 06:40:02;;;;;;;3.25;1.10;;;7.40;99.90;;;;;;5046373;28;20195;-44
2024/01/27 06:42:32;;;;;;;1.83;1.23;;;7.40;99.90;;;;;;5048162;28;20308;-45
2024/01/27 06:45:00;;;;;;;3.83;1.65;;;7.40;99.90;;;;;;5048460;28;20577;-45
2024/01/27 06:47:29;;;;;;;6.28;2.15;;;7.40;99.90;;;;;;5041643;28;20218;-45
2024/01/27 06:49:57;;;;;;;2.22;1.05;;;7.40;99.90;;;;;;5049183;28;20275;-43
2024/01/27 06:52:26;;;;;;;3.00;1.30;;;7.40;99.90;;;;;;5045868;28;20254;-46
2024/01/27 06:54:54;;;;;;;1.50;0.73;;;7.40;99.90;;;;;;5045141;28;20654;-47
2024/01/27 06:57:24;;;;;;;3.42;1.10;;;7.40;99.90;;;;;;5046321;28;20221;-47
2024/01/27 06:59:55;;;;;;;2.95;1.02;;;7.40;99.90;;;;;;5049959;28;20274;-46
2024/01/27 07:02:26;;;;;;;2.85;1.00;;;7.40;99.90;;;;;;5039484;28;20297;-45
2024/01/27 07:04:54;;;;;;;1.58;1.05;;;7.40;99.90;;;;;;5049113;28;20622;-48
2024/01/27 07:07:26;;;;;;;1.90;1.13;;;7.40;99.90;;;;;;5049444;28;20259;-46
2024/01/27 07:09:55;;;;;;;2.17;1.17;;;7.30;99.90;;;;;;5047457;28;20210;-46
2024/01/27 07:12:23;;;;;;;2.05;1.00;;;7.30;99.90;;;;;;5047803;28;20310;-45
2024/01/27 07:14:54;;;;;;;1.92;1.00;;;7.30;99.90;;;;;;5045229;28;20225;-45
2024/01/27 07:17:25;;;;;;;2.42;1.08;;;7.30;99.90;;;;;;5039536;28;20223;-48
2024/01/27 07:19:54;;;;;;;2.22;0.95;;;7.30;99.90;;;;;;5047823;28;20196;-46
2024/01/27 07:22:24;;;;;;;1.70;1.05;;;7.30;99.90;;;;;;5045550;28;20238;-48
2024/01/27 07:24:52;;;;;;;2.55;1.13;;;7.30;99.90;;;;;;5043600;28;20827;-45
2024/01/27 07:27:21;;;;;;;3.30;1.50;;;7.30;99.90;;;;;;5046035;28;20225;-45
2024/01/27 07:29:49;;;;;;;1.58;1.00;;;7.30;99.90;;;;;;5045540;28;20262;-47
2024/01/27 07:32:19;;;;;;;2.58;0.98;;;7.30;99.90;;;;;;5037272;28;20780;-46
2024/01/27 07:34:47;;;;;;;1.67;0.95;;;7.30;99.90;;;;;;5043561;28;20237;-45
2024/01/27 07:37:15;;;;;;;3.88;1.00;;;7.30;99.90;;;;;;5047404;28;20216;-48
2024/01/27 07:39:43;;;;;;;2.90;1.05;;;7.30;99.90;;;;;;5047629;28;20207;-45
2024/01/27 07:42:12;;;;;;;2.30;1.08;;;7.30;99.90;;;;;;5046897;28;20220;-46
2024/01/27 07:44:40;;;;;;;2.60;1.00;;;7.30;99.90;;;;;;5046572;28;20227;-46
2024/01/27 07:47:09;;;;;;;1.75;0.80;;;7.30;99.90;;;;;;5043950;28;20224;-44
2024/01/27 07:49:39;;;;;;;2.03;1.05;;;7.30;99.90;;;;;;5046660;28;20217;-46
2024/01/27 07:52:07;;;;;;;1.67;0.80;;;7.30;99.90;;;;;;5047229;28;20821;-45
2024/01/27 07:54:38;;;;;;;1.65;0.80;;;7.20;99.90;;;;;;5047425;28;20208;-46
2024/01/27 07:57:07;;;;;;;2.45;1.13;;;7.20;99.90;;;;;;5048477;28;20192;-44
2024/01/27 07:59:35;;;;;;;2.67;1.00;;;7.20;99.90;;;;;;5039808;28;20193;-46
2024/01/27 08:02:04;;;;;;;2.20;1.00;;;7.20;99.90;;;;;;5043661;28;20292;-47
2024/01/27 08:04:32;;;;;;;3.15;1.50;;;7.20;99.90;;;;;;5045869;28;20186;-46
2024/01/27 08:07:06;;;;;;;1.70;1.10;;;7.20;99.90;;;;;;5048111;28;20591;-46
2024/01/27 08:09:34;;;;;;;3.38;1.17;;;7.20;99.90;;;;;;5044965;28;20574;-45
2024/01/27 08:12:03;;;;;;;2.40;0.90;;;7.20;99.90;;;;;;5048269;28;20270;-49
2024/01/27 08:14:31;;;;;;;5.00;1.20;;;7.20;99.90;;;;;;5047262;28;20223;-46
2024/01/27 08:17:00;;;;;;;3.30;1.35;;;7.20;99.90;;;;;;5045770;28;20607;-45
2024/01/27 08:19:28;;;;;;;3.97;1.50;;;7.20;99.90;;;;;;5046783;28;20204;-45
2024/01/27 08:21:56;;;;;;;2.08;0.98;;;7.20;99.90;;;;;;5047232;28;20216;-44
2024/01/27 08:24:26;;;;;;;4.18;1.65;;;7.20;99.90;;;;;;5047216;28;20657;-45
2024/01/27 08:26:54;;;;;;;2.70;1.50;;;7.20;99.90;;;;;;5044599;28;20629;-44
2024/01/27 08:29:23;;;;;;;2.60;1.30;;;7.20;99.90;;;;;;5048130;28;20249;-44
2024/01/27 08:31:51;;;;;;;2.20;1.20;;;7.20;99.90;;;;;;5039623;28;20221;-44
2024/01/27 08:34:19;;;;;;;4.00;1.65;;;7.20;99.90;;;;;;5047521;28;20680;-46
2024/01/27 08:36:47;;;;;;;3.13;1.42;;;7.20;99.90;;;;;;5049197;28;20272;-44
2024/01/27 08:39:15;;;;;;;4.47;1.60;;;7.20;99.90;;;;;;5044666;28;20690;-44
2024/01/27 08:41:45;;;;;;;3.45;1.45;;;7.10;99.90;;;;;;5048596;28;20224;-44
2024/01/27 08:44:13;;;;;;;2.45;1.55;;;7.20;99.90;;;;;;5046470;28;20233;-45
2024/01/27 08:46:41;;;;;;;2.90;1.70;;;7.20;99.90;;;;;;5044964;28;20400;-44
2024/01/27 08:49:09;;;;;;;2.70;1.40;;;7.10;99.90;;;;;;5044818;28;20291;-45
2024/01/27 08:51:38;;;;;;;1.42;0.90;;;7.10;99.90;;;;;;5045801;28;20673;-44
2024/01/27 08:54:06;;;;;;;2.65;1.55;;;7.10;99.90;;;;;;5046175;28;20738;-45
2024/01/27 08:56:34;;;;;;;4.38;1.85;;;7.10;99.90;;;;;;5043117;28;20180;-45
2024/01/27 08:59:04;;;;;;;3.05;1.20;;;7.10;99.90;;;;;;5046802;28;20273;-45
2024/01/27 09:01:32;;;;;;;13.10;4.85;;;7.10;99.90;;;;;;5041920;28;20193;-45
2024/01/27 09:04:00;;;;;;;13.95;4.15;;;7.10;99.40;;;;;;5042396;28;20545;-44
2024/01/27 09:06:28;;;;;;;12.82;4.57;;;7.00;99.10;;;;;;5041344;28;20296;-45
2024/01/27 09:08:59;;;;;;;6.63;3.92;;;7.00;99.40;;;;;;5045997;28;20278;-45
2024/01/27 09:11:29;;;;;;;9.35;3.33;;;7.00;99.40;;;;;;5041161;28;20192;-45
2024/01/27 09:13:57;;;;;;;8.30;3.30;;;7.00;99.70;;;;;;5049059;28;20724;-44
2024/01/27 09:16:27;;;;;;;5.10;2.55;;;7.00;99.90;;;;;;5048548;28;20695;-44
2024/01/27 09:18:55;;;;;;;6.15;3.67;;;7.10;99.90;;;;;;5050550;28;20229;-45
2024/01/27 09:21:28;;;;;;;5.45;2.50;;;7.10;99.90;;;;;;5051076;28;20211;-44
2024/01/27 09:23:56;;;;;;;5.68;2.92;;;7.10;99.90;;;;;;5047290;28;20278;-46
2024/01/27 09:26:25;;;;;;;5.53;3.10;;;7.10;99.90;;;;;;5050731;28;21074;-49
2024/01/27 09:28:55;;;;;;;4.68;2.42;;;7.10;99.90;;;;;;5049723;28;20226;-46
2024/01/27 09:31:23;;;;;;;5.28;2.50;;;7.10;99.90;;;;;;5048399;28;20370;-47
2024/01/27 09:33:54;;;;;;;6.43;2.50;;;7.10;99.90;;;;;;5031159;28;20224;-45
2024/01/27 09:36:23;;;;;;;7.75;2.70;;;7.10;99.90;;;;;;5047915;28;20219;-47
2024/01/27 09:38:52;;;;;;;8.18;3.05;;;7.10;99.90;;;;;;5049190;28;20221;-47
2024/01/27 09:41:20;;;;;;;5.28;2.95;;;7.10;99.90;;;;;;5047819;28;20200;-46
2024/01/27 09:43:49;;;;;;;6.45;2.30;;;7.10;99.90;;;;;;5043944;28;20262;-46
2024/01/27 09:46:19;;;;;;;5.75;2.80;;;7.10;99.90;;;;;;5024594;28;20219;-45
2024/01/27 09:48:47;;;;;;;5.47;2.40;;;7.10;99.90;;;;;;5049208;28;20220;-47
2024/01/27 09:51:17;;;;;;;4.80;2.30;;;7.10;99.90;;;;;;5032652;28;20290;-48
2024/01/27 09:53:45;;;;;;;5.22;2.50;;;7.10;99.90;;;;;;5050765;28;20411;-45
2024/01/27 09:56:17;;;;;;;3.47;2.00;;;7.10;99.90;;;;;;5048038;28;20709;-46
2024/01/27 09:58:46;;;;;;;6.38;2.65;;;7.10;99.90;;;;;;5049082;28;20225;-46
2024/01/27 10:01:18;;;;;;;3.30;2.53;;;7.10;99.90;;;;;;5048102;28;20220;-46
2024/01/27 10:03:48;;;;;;;13.23;5.57;;;7.10;99.90;;;;;;5049818;28;20213;-45
2024/01/27 10:06:18;;;;;;;9.07;4.07;;;7.20;99.40;;;;;;5048860;28;20443;-47
2024/01/27 10:08:54;;;;;;;9.10;4.20;;;7.10;98.00;;;;;;5047193;28;20217;-45
2024/01/27 10:11:22;;;;;;;10.35;3.55;;;7.10;97.30;;;;;;5049456;28;20392;-45
2024/01/27 10:13:56;;;;;;;8.48;3.28;;;7.10;97.70;;;;;;5031796;28;20209;-46
2024/01/27 10:16:28;;;;;;;9.23;3.35;;;7.10;97.70;;;;;;5045336;28;20218;-46
2024/01/27 10:19:06;;;;;;;7.57;3.55;;;7.10;96.90;;;;;;5044658;28;20261;-48
2024/01/27 10:21:35;;;;;;;6.40;2.90;;;7.10;97.10;;;;;;5047794;28;20207;-48
2024/01/27 10:24:06;;;;;;;7.32;3.15;;;7.10;96.70;;;;;;5047068;28;20228;-47
2024/01/27 10:26:35;;;;;;;12.45;3.20;;;7.10;97.10;;;;;;5048879;28;20563;-48
2024/01/27 10:29:03;;;;;;;12.27;3.38;;;7.00;97.10;;;;;;5050082;28;20294;-47
2024/01/27 10:31:34;;;;;;;8.13;2.70;;;7.10;97.40;;;;;;5045008;28;20193;-47
2024/01/27 10:34:04;;;;;;;6.55;2.83;;;7.10;97.60;;;;;;5049378;28;20217;-48
2024/01/27 10:36:44;;;;;;;11.23;2.80;;;7.10;98.00;;;;;;5049751;28;20236;-47
2024/01/27 10:39:18;;;;;;;8.93;3.67;;;7.00;97.10;;;;;;5041722;28;20310;-47
2024/01/27 10:41:48;;;;;;;7.50;2.90;;;7.00;97.60;;;;;;5025291;28;20230;-47
2024/01/27 10:44:17;;;;;;;9.45;2.97;;;7.10;96.40;;;;;;5044195;28;20284;-46
2024/01/27 10:46:47;;;;;;;8.15;2.55;;;7.00;96.60;;;;;;5045401;28;20281;-46
2024/01/27 10:49:16;;;;;;;5.88;2.33;;;7.10;97.20;;;;;;5044116;28;20232;-46
2024/01/27 10:51:50;;;;;;;9.75;2.65;;;7.00;95.90;;;;;;5049768;28;20222;-46
2024/01/27 10:54:24;;;;;;;7.03;2.80;;;7.10;97.10;;;;;;5028313;28;20237;-46
2024/01/27 10:56:55;;;;;;;5.35;2.22;;;7.10;97.70;;;;;;5049255;28;20343;-48
2024/01/27 10:59:23;;;;;;;5.32;2.25;;;7.10;97.70;;;;;;5050122;28;20558;-46
2024/01/27 11:01:53;;;;;;;4.63;2.38;;;7.10;97.80;;;;;;5040990;28;20209;-47
2024/01/27 11:04:21;;;;;;;4.35;2.60;;;7.10;98.10;;;;;;5040599;28;20232;-47
2024/01/27 11:06:53;;;;;;;9.18;3.45;;;7.10;98.40;;;;;;5047525;28;20202;-46
2024/01/27 11:09:22;;;;;;;5.10;2.22;;;7.10;98.60;;;;;;5047091;28;20295;-46
2024/01/27 11:11:51;;;;;;;6.15;2.58;;;7.10;98.90;;;;;;5047101;28;20298;-46
2024/01/27 11:14:22;;;;;;;9.45;3.15;;;7.10;99.00;;;;;;5039743;28;20223;-46
2024/01/27 11:16:56;;;;;;;7.13;3.05;;;7.10;99.20;;;;;;5041507;28;20209;-46
2024/01/27 11:19:25;;;;;;;5.70;2.53;;;7.10;99.30;;;;;;5045676;28;20220;-46
2024/01/27 11:22:02;;;;;;;7.43;2.13;;;7.10;99.40;;;;;;5030643;28;20216;-47
2024/01/27 11:24:32;;;;;;;4.88;1.92;;;7.10;99.50;;;;;;5047299;28;20210;-48
2024/01/27 11:27:04;;;;;;;6.53;2.70;;;7.10;99.50;;;;;;5046600;28;20752;-48
2024/01/27 11:29:34;;;;;;;6.88;3.13;;;7.10;99.60;;;;;;5047382;28;20618;-46
2024/01/27 11:32:04;;;;;;;5.60;2.03;;;7.10;99.70;;;;;;5044599;28;20248;-46
2024/01/27 11:34:45;;;;;;;7.05;2.70;;;7.10;99.70;;;;;;5046583;28;20192;-47
2024/01/27 11:37:19;;;;;;;4.25;2.10;;;7.10;99.80;;;;;;5045633;28;20319;-47
2024/01/27 11:39:48;;;;;;;6.63;1.92;;;7.10;99.80;;;;;;5048222;28;20196;-48
2024/01/27 11:42:18;;;;;;;3.78;2.17;;;7.10;99.90;;;;;;5043958;28;20985;-48
2024/01/27 11:44:46;;;;;;;5.28;2.15;;;7.10;99.90;;;;;;5046304;28;20202;-48
2024/01/27 11:47:16;;;;;;;2.85;1.67;;;7.10;99.90;;;;;;5045491;28;20725;-47
2024/01/27 11:49:54;;;;;;;2.80;1.60;;;7.10;99.90;;;;;;5047617;28;20193;-48
2024/01/27 11:52:26;;;;;;;5.40;2.20;;;7.10;99.90;;;;;;5046617;28;20260;-48
2024/01/27 11:54:55;;;;;;;4.53;2.42;;;7.10;99.90;;;;;;5042919;28;20212;-48
2024/01/27 11:57:24;;;;;;;4.18;2.00;;;7.10;99.90;;;;;;5046391;28;20276;-47
2024/01/27 11:59:53;;;;;;;5.63;2.20;;;7.10;99.90;;;;;;5047374;28;20204;-47
2024/01/27 12:02:22;;;;;;;5.38;2.15;;;7.10;99.90;;;;;;5043766;28;20426;-47
2024/01/27 12:04:50;;;;;;;4.13;1.60;;;7.10;99.90;;;;;;5044195;28;20246;-46
2024/01/27 12:07:19;;;;;;;3.78;1.83;;;7.10;99.90;;;;;;5047409;28;20216;-47
2024/01/27 12:09:51;;;;;;;3.33;1.85;;;7.10;99.90;;;;;;5044961;28;20195;-47
2024/01/27 12:12:20;;;;;;;3.75;1.60;;;7.10;99.90;;;;;;5046064;28;20224;-48
2024/01/27 12:14:50;;;;;;;4.28;1.50;;;7.10;99.90;;;;;;5045964;28;20200;-47
2024/01/27 12:17:19;;;;;;;5.00;2.17;;;7.00;99.90;;;;;;5045228;28;20221;-47
2024/01/27 12:19:48;;;;;;;4.20;1.65;;;7.00;99.90;;;;;;5047575;28;20197;-47
2024/01/27 12:22:25;;;;;;;3.40;1.55;;;7.00;99.90;;;;;;5042186;28;20708;-47
2024/01/27 12:24:55;;;;;;;3.33;1.98;;;7.00;99.90;;;;;;5048371;28;20322;-47
2024/01/27 12:27:24;;;;;;;4.72;1.88;;;7.00;99.90;;;;;;5046675;28;20220;-47
2024/01/27 12:29:57;;;;;;;3.30;1.77;;;7.00;99.90;;;;;;5045627;28;20210;-46
2024/01/27 12:32:26;;;;;;;2.80;1.45;;;7.00;99.90;;;;;;5043022;28;20703;-49
2024/01/27 12:34:55;;;;;;;3.97;1.90;;;7.10;99.90;;;;;;5042584;28;20196;-46
2024/01/27 12:37:24;;;;;;;6.05;2.15;;;7.10;99.50;;;;;;5045092;28;20286;-46
2024/01/27 12:39:52;;;;;;;7.05;1.77;;;7.10;99.50;;;;;;5040004;28;20276;-45
2024/01/27 12:42:23;;;;;;;7.00;2.25;;;7.10;99.80;;;;;;5044285;28;20231;-46
2024/01/27 12:44:51;;;;;;;4.38;2.08;;;7.00;99.80;;;;;;5026064;28;20664;-47
2024/01/27 12:47:20;;;;;;;6.05;2.22;;;7.00;99.90;;;;;;5046665;28;20435;-47
2024/01/27 12:49:50;;;;;;;7.25;1.73;;;7.10;99.90;;;;;;5051118;28;20193;-46
2024/01/27 12:52:21;;;;;;;3.53;1.70;;;7.10;99.90;;;;;;5046430;28;20229;-46
2024/01/27 12:54:50;;;;;;;3.30;1.70;;;7.00;99.80;;;;;;5046878;28;20192;-47
2024/01/27 12:57:19;;;;;;;4.45;1.92;;;7.00;99.90;;;;;;5049728;28;20224;-46
2024/01/27 12:59:49;;;;;;;4.75;2.05;;;7.00;99.90;;;;;;5050559;28;20266;-46
2024/01/27 13:02:19;;;;;;;4.45;2.20;;;7.00;99.90;;;;;;5048263;28;20224;-46
2024/01/27 13:04:48;;;;;;;3.67;1.65;;;7.00;99.90;;;;;;5051294;28;20192;-48
2024/01/27 13:07:16;;;;;;;15.07;2.60;;;7.00;99.90;;;;;;5050182;28;20548;-44